Loris, SC (29569)

20:31 EDT le 30 août 2014 (GMT -0400)
The Farm at Fox Bay | Change Station
CLOSE
Current Station
Stations météorologiques personnelles
Location: Loris, SC
Altitude: 108 ft
Stations météo à proximité

Alt. 108 ft 34.07 °N, 78.87 °W | Updated 3 seconds ago

Ciel dégagé
Ciel dégagé
79.3 ° F
Paraît 83 ° F
N
0.0
Vent Variable Vent de SSE
Gusts 0.0 mph

Aujourd'hui
Haut(e) -- | Bas -- ° F
--% Risque de précip.
Hier
Haut(e) -- | Bas -- ° F
Precip. -- pouce
6:47 AM 7:44 PM
Lune montante, 26% visible
Pression 30.13 pouce
Visibilité 7.0 Miles terrestres
Nuages Ciel dégagé
indice de chaleur 83 ° F
Point de rosée 74 ° F
Humidité 85%
Précipitations 0.00 pouce
Profondeur de la couche neigeuse Non disponible.
UV 0 sur 12
Pollen 8.20 sur 12
Qualité de l'air Non disponible.
Flu Activity Non disponible.
METAR KHYW 310015Z AUTO 00000KT 7SM CLR 26/22 A3013 RMK AO2

More Conditions Fewer Conditions

Pression 30.13 pouce
Visibilité 7.0 Miles terrestres
Nuages Ciel dégagé
indice de chaleur 83 ° F
Point de rosée 74 ° F
Humidité 85%
Précipitations 0.00 pouce
Profondeur de la couche neigeuse Non disponible.
UV 0 sur 12
Pollen 8.20 sur 12
Qualité de l'air Non disponible.
Flu Activity Non disponible.
METAR KHYW 310015Z AUTO 00000KT 7SM CLR 26/22 A3013 RMK AO2

More Conditions Fewer Conditions

10-Day Weather Forecast

Almanac

Astronomie

Aug. 30, 2014 Lever Coucher
Temps réel 06:47 EDT 19:44 EDT
Crépuscule civil 06:22 EDT 20:09 EDT
Crépuscule nautique 05:51 EDT 20:39 EDT
Crépuscule astronomique 05:20 EDT 21:11 EDT
Lune 11:19 EDT (8/30) 22:32 EDT (8/30)
Durée de lumière visible 13h 47m
Longueur du jour
12h 56m
Tomorrow will be 2m 1s shorter.
Lune montante, 26% of the Moon is Illuminated
Aujourd'hui
Lune montante
Sep 2
Premier quartier
Sep 8
Pleine lune
Sep 15
Dernier quartier
Sep 24
Nouveau

Extrêmes aujourd'hui

State Highs State Lows

Community

WunderPhotos

Upload Photos

1,748,706 Photos téléchargées !

Nearby

Épaisseur de neige

Station Depth Altitude
Pas de nouvelles chutes de neige

Activité sismique

Ville Distance Mag. Time & Date
No recent earthquake activity has been reported nearby.
Minimum magnitude displayed is 2.5.

Températures des eaux côtières

Lieu Température
Springmaid Pier, SC 84.9 ° F

Stations météo à proximité